Time;durP1;ratioP1;P1;durP2;ratioP2;P2;SDS_P1;SDS_P2;PMS_P1;PMS_P2;Temp;Humidity;BMP_temperature;BMP_pressure;BME280_temperature;BME280_humidity;BME280_pressure;Samples;Min_cycle;Max_cycle;Signal;HPM_P1;HPM_P2
2022/04/01 00:02:12;;;;;;;20.37;12.73;;;9.80;55.60;;;;;;5130013;27;20588;-86
2022/04/01 00:04:39;;;;;;;16.20;10.47;;;9.80;55.90;;;;;;5129328;27;20434;-85
2022/04/01 00:07:06;;;;;;;16.77;11.13;;;9.70;56.00;;;;;;5132877;27;20448;-86
2022/04/01 00:09:34;;;;;;;16.60;10.13;;;9.70;56.00;;;;;;5132188;27;20441;-86
2022/04/01 00:12:02;;;;;;;13.10;9.33;;;9.70;56.40;;;;;;5129584;27;20964;-87
2022/04/01 00:14:28;;;;;;;16.20;10.60;;;9.80;56.00;;;;;;5130204;27;20472;-87
2022/04/01 00:16:56;;;;;;;14.60;9.87;;;9.70;55.40;;;;;;5132096;27;20442;-86
2022/04/01 00:19:23;;;;;;;17.03;9.00;;;9.60;56.00;;;;;;5128287;27;20465;-86
2022/04/01 00:21:49;;;;;;;17.20;10.13;;;9.60;56.10;;;;;;5130140;27;20465;-86
2022/04/01 00:24:17;;;;;;;14.97;9.83;;;9.70;56.30;;;;;;5129905;27;20453;-87
2022/04/01 00:26:46;;;;;;;16.63;10.17;;;9.50;56.10;;;;;;5132367;27;20990;-86
2022/04/01 00:29:20;;;;;;;16.73;9.83;;;9.40;55.90;;;;;;5113029;27;20457;-88
2022/04/01 00:31:48;;;;;;;15.40;9.60;;;9.20;55.70;;;;;;5117710;27;20469;-86
2022/04/01 00:34:16;;;;;;;19.93;9.90;;;8.90;56.00;;;;;;5134531;27;20490;-87
2022/04/01 00:36:44;;;;;;;16.10;10.83;;;9.00;57.10;;;;;;5125022;27;20458;-87
2022/04/01 00:39:11;;;;;;;13.47;8.63;;;9.00;56.30;;;;;;5133162;27;20450;-85
2022/04/01 00:41:38;;;;;;;14.97;10.13;;;9.00;56.30;;;;;;5116725;27;20479;-87
2022/04/01 00:44:15;;;;;;;15.03;10.20;;;9.20;56.40;;;;;;5133654;27;20425;-87
2022/04/01 00:46:43;;;;;;;16.20;9.10;;;9.10;56.10;;;;;;5132980;27;20441;-88
2022/04/01 00:49:10;;;;;;;14.13;9.50;;;9.20;55.80;;;;;;5123174;27;20458;-87
2022/04/01 00:51:38;;;;;;;16.60;9.37;;;8.80;56.20;;;;;;5117725;27;20483;-88
2022/04/01 00:54:06;;;;;;;15.60;9.93;;;9.00;56.50;;;;;;5137679;27;20534;-87
2022/04/01 00:56:35;;;;;;;18.63;10.70;;;9.10;56.40;;;;;;5118862;27;20440;-87
2022/04/01 00:59:03;;;;;;;14.00;9.77;;;9.30;56.80;;;;;;5135403;27;20438;-87
2022/04/01 01:01:33;;;;;;;17.40;9.37;;;9.10;55.30;;;;;;5132251;27;21060;-87
2022/04/01 01:04:02;;;;;;;17.07;9.60;;;9.10;55.40;;;;;;5135085;27;20526;-85
2022/04/01 01:06:31;;;;;;;15.70;9.63;;;9.00;56.20;;;;;;5115677;27;20454;-87
2022/04/01 01:08:59;;;;;;;14.50;10.40;;;9.10;56.10;;;;;;5125840;27;20475;-88
2022/04/01 01:11:26;;;;;;;16.77;9.30;;;8.80;55.70;;;;;;5132041;27;21287;-87
2022/04/01 01:13:54;;;;;;;16.17;9.50;;;8.80;56.60;;;;;;5116908;27;20461;-89
2022/04/01 01:16:21;;;;;;;15.60;9.93;;;8.90;56.20;;;;;;5134348;27;20912;-89
2022/04/01 01:19:02;;;;;;;15.90;9.30;;;8.90;56.40;;;;;;5135914;27;20472;-85
2022/04/01 01:21:30;;;;;;;16.10;9.90;;;9.00;56.30;;;;;;5135269;27;20464;-87
2022/04/01 01:24:03;;;;;;;15.27;10.20;;;9.10;55.70;;;;;;5115790;27;20457;-87
2022/04/01 01:26:33;;;;;;;16.10;9.67;;;9.10;55.30;;;;;;5115233;27;20466;-87
2022/04/01 01:29:00;;;;;;;15.67;8.80;;;9.20;55.80;;;;;;5116290;27;20438;-88
2022/04/01 01:31:28;;;;;;;14.97;8.80;;;9.00;55.60;;;;;;5114868;27;20472;-87
2022/04/01 01:33:57;;;;;;;16.93;9.20;;;9.10;56.20;;;;;;5123289;27;20478;-87
2022/04/01 01:36:30;;;;;;;16.93;10.90;;;9.10;55.90;;;;;;5135742;27;20819;-86
2022/04/01 01:38:58;;;;;;;16.63;9.67;;;9.20;54.90;;;;;;5114676;27;20515;-88
2022/04/01 01:41:25;;;;;;;17.30;8.60;;;9.00;55.70;;;;;;5134748;27;20973;-87
2022/04/01 01:43:55;;;;;;;17.70;9.67;;;8.80;55.40;;;;;;5118952;27;20441;-86
2022/04/01 01:46:23;;;;;;;15.30;9.70;;;8.80;56.60;;;;;;5138106;27;20483;-87
2022/04/01 01:48:50;;;;;;;14.10;8.53;;;8.80;55.60;;;;;;5132706;27;20506;-87
2022/04/01 01:56:46;;;;;;;15.57;9.43;;;8.90;56.70;;;;;;5110035;27;20439;-88
2022/04/01 01:59:14;;;;;;;15.80;8.60;;;8.80;55.70;;;;;;5100384;27;20441;-87
2022/04/01 02:01:42;;;;;;;18.53;11.07;;;8.80;56.60;;;;;;5111596;27;21008;-88
2022/04/01 02:04:11;;;;;;;14.17;9.20;;;8.90;56.50;;;;;;5124661;27;20441;-87
2022/04/01 02:06:39;;;;;;;16.23;10.87;;;8.90;55.80;;;;;;5107283;27;20462;-88
2022/04/01 02:09:06;;;;;;;16.17;9.37;;;9.00;56.50;;;;;;5097823;27;21080;-87
2022/04/01 02:11:34;;;;;;;17.07;10.20;;;9.20;56.60;;;;;;5105565;27;20483;-87
2022/04/01 02:14:01;;;;;;;18.83;9.23;;;9.30;56.80;;;;;;5133368;27;20504;-87
2022/04/01 02:16:30;;;;;;;20.00;10.67;;;9.30;55.90;;;;;;5107113;27;21037;-87
2022/04/01 02:18:57;;;;;;;17.57;9.77;;;9.40;56.20;;;;;;5114190;27;20442;-87
2022/04/01 02:21:24;;;;;;;16.53;9.03;;;9.30;56.50;;;;;;5121817;27;20476;-88
2022/04/01 02:23:51;;;;;;;17.00;9.53;;;9.20;56.10;;;;;;5100976;27;20469;-88
2022/04/01 02:26:23;;;;;;;18.00;9.77;;;8.90;55.80;;;;;;5123576;27;20525;-87
2022/04/01 02:28:50;;;;;;;12.77;8.33;;;9.00;56.70;;;;;;5099295;27;20558;-85
2022/04/01 02:31:19;;;;;;;15.00;9.47;;;9.00;56.60;;;;;;5113091;27;20462;-88
2022/04/01 02:34:10;;;;;;;18.40;9.40;;;9.10;56.30;;;;;;5129514;27;20593;-87
2022/04/01 02:36:38;;;;;;;18.37;10.53;;;9.00;56.50;;;;;;5095971;27;20462;-88
2022/04/01 02:39:06;;;;;;;16.67;10.07;;;8.90;56.70;;;;;;5121593;27;20446;-88
2022/04/01 02:41:33;;;;;;;19.77;11.20;;;9.00;56.60;;;;;;5121840;27;20476;-87
2022/04/01 02:44:09;;;;;;;18.53;10.10;;;9.00;56.40;;;;;;5106903;27;20465;-87
2022/04/01 02:46:39;;;;;;;19.80;10.17;;;8.80;56.80;;;;;;5107277;27;20541;-89
2022/04/01 02:49:07;;;;;;;16.37;9.20;;;8.70;56.90;;;;;;5133939;27;20553;-87
2022/04/01 02:51:41;;;;;;;20.13;9.30;;;8.60;57.00;;;;;;5098446;27;20853;-88
2022/04/01 02:54:18;;;;;;;14.20;9.33;;;8.80;57.10;;;;;;5111223;27;20602;-87
2022/04/01 02:56:45;;;;;;;19.53;10.60;;;8.70;57.30;;;;;;5083600;27;20449;-88
2022/04/01 02:59:12;;;;;;;19.73;10.20;;;8.70;57.60;;;;;;5115664;27;21020;-87
2022/04/01 03:01:41;;;;;;;18.57;9.43;;;8.90;57.20;;;;;;5114791;27;20476;-90
2022/04/01 03:04:10;;;;;;;16.43;10.97;;;9.00;56.60;;;;;;5132574;27;20453;-88
2022/04/01 03:06:44;;;;;;;18.83;10.20;;;9.10;55.90;;;;;;5106878;27;20522;-87
2022/04/01 03:09:11;;;;;;;17.90;10.27;;;9.00;56.50;;;;;;5122142;27;20458;-85
2022/04/01 03:11:42;;;;;;;20.20;9.80;;;9.00;56.50;;;;;;5120469;27;20457;-87
2022/04/01 03:14:22;;;;;;;17.93;9.97;;;9.10;55.90;;;;;;5104687;27;20461;-88
2022/04/01 03:17:09;;;;;;;17.10;9.70;;;9.00;55.70;;;;;;5112028;27;20528;-88
2022/04/01 03:19:39;;;;;;;17.20;10.47;;;9.20;56.00;;;;;;5122012;27;20507;-87
2022/04/01 03:22:07;;;;;;;17.80;10.60;;;9.20;56.10;;;;;;5113189;27;20457;-87
2022/04/01 03:24:35;;;;;;;17.27;10.30;;;9.00;56.20;;;;;;5115235;27;20528;-87
2022/04/01 03:27:03;;;;;;;20.50;10.30;;;8.90;55.70;;;;;;5113561;27;20929;-88
2022/04/01 03:29:32;;;;;;;18.40;9.40;;;8.80;55.70;;;;;;5099006;27;20524;-87
2022/04/01 03:31:59;;;;;;;16.27;9.93;;;8.60;55.70;;;;;;5113435;27;20478;-87
2022/04/01 03:34:27;;;;;;;18.47;10.13;;;8.50;56.50;;;;;;5132787;27;20488;-88
2022/04/01 03:36:54;;;;;;;17.20;10.53;;;8.70;56.80;;;;;;5115381;27;20449;-87
2022/04/01 03:39:24;;;;;;;16.47;10.23;;;8.70;56.00;;;;;;5112095;27;20449;-87
2022/04/01 03:41:56;;;;;;;15.20;9.93;;;8.60;56.90;;;;;;5116730;27;20469;-88
2022/04/01 03:44:25;;;;;;;16.70;9.20;;;8.40;56.60;;;;;;5097605;27;20815;-87
2022/04/01 03:47:10;;;;;;;16.47;10.00;;;8.50;57.30;;;;;;5113203;27;20450;-88
2022/04/01 03:49:47;;;;;;;16.67;9.90;;;8.60;56.50;;;;;;5113463;27;21021;-87
2022/04/01 03:52:15;;;;;;;13.10;8.90;;;8.80;57.10;;;;;;5107768;27;20479;-89
2022/04/01 03:54:47;;;;;;;16.60;10.13;;;8.50;56.20;;;;;;5122657;27;20476;-90
2022/04/01 03:57:43;;;;;;;14.87;9.23;;;8.40;57.10;;;;;;5059636;27;20769;-88
2022/04/01 04:00:38;;;;;;;17.00;9.70;;;8.50;57.20;;;;;;5118947;27;20473;-89
2022/04/01 04:03:08;;;;;;;16.73;9.63;;;8.60;57.50;;;;;;5116171;27;20449;-88
2022/04/01 04:05:37;;;;;;;18.50;9.97;;;8.90;57.40;;;;;;5113233;27;20440;-87
2022/04/01 04:08:05;;;;;;;16.30;9.70;;;8.90;57.00;;;;;;5104275;27;20437;-87
2022/04/01 04:10:35;;;;;;;17.13;9.27;;;8.90;56.20;;;;;;5115240;27;20484;-87
2022/04/01 04:13:16;;;;;;;16.33;9.80;;;8.70;56.00;;;;;;5113817;27;20457;-88
2022/04/01 04:15:48;;;;;;;19.80;9.77;;;8.60;56.30;;;;;;5095455;27;21021;-86
2022/04/01 04:18:18;;;;;;;14.57;8.83;;;8.60;57.20;;;;;;5114167;27;20449;-89
2022/04/01 04:20:57;;;;;;;19.87;10.90;;;8.60;56.70;;;;;;5114071;27;20928;-88
2022/04/01 04:23:26;;;;;;;18.17;10.30;;;8.60;57.20;;;;;;5113347;27;21018;-88
2022/04/01 04:26:01;;;;;;;24.20;14.53;;;8.30;56.60;;;;;;5121671;27;20441;-88
2022/04/01 04:28:37;;;;;;;18.33;11.70;;;8.40;57.20;;;;;;5095505;27;20819;-86
2022/04/01 04:31:28;;;;;;;14.60;8.90;;;8.60;57.30;;;;;;5115556;27;20469;-86
2022/04/01 04:34:09;;;;;;;19.80;12.63;;;8.70;57.30;;;;;;5120846;27;20447;-87
2022/04/01 04:36:38;;;;;;;14.97;10.80;;;8.70;57.10;;;;;;5113279;27;20453;-87
2022/04/01 04:39:07;;;;;;;14.10;9.63;;;8.50;57.00;;;;;;5119489;27;20532;-87
2022/04/01 04:41:39;;;;;;;17.87;10.10;;;8.40;56.70;;;;;;5114379;27;20864;-87
2022/04/01 04:44:11;;;;;;;16.17;9.80;;;8.40;56.80;;;;;;5096671;27;20446;-88
2022/04/01 04:46:43;;;;;;;14.23;9.80;;;8.60;57.20;;;;;;5099674;27;20537;-88
2022/04/01 04:49:11;;;;;;;16.00;10.60;;;8.60;56.80;;;;;;5112347;27;20469;-87
2022/04/01 04:51:39;;;;;;;15.80;9.60;;;8.40;56.40;;;;;;5121778;27;20473;-87
2022/04/01 04:54:33;;;;;;;14.60;9.10;;;8.50;56.90;;;;;;5125372;27;20464;-87
2022/04/01 04:57:12;;;;;;;13.63;8.07;;;8.50;56.70;;;;;;5102620;27;20453;-87
2022/04/01 04:59:43;;;;;;;18.07;9.70;;;8.60;57.00;;;;;;5112289;27;20442;-87
2022/04/01 05:02:18;;;;;;;17.97;8.70;;;8.60;56.60;;;;;;5098516;27;20473;-85
2022/04/01 05:05:00;;;;;;;15.20;9.17;;;8.60;56.50;;;;;;5087312;27;20446;-88
2022/04/01 05:07:43;;;;;;;14.33;8.83;;;8.50;56.30;;;;;;5092617;27;20461;-88
2022/04/01 05:10:48;;;;;;;15.13;8.83;;;8.60;56.90;;;;;;5128485;27;20687;-87
2022/04/01 05:13:23;;;;;;;31.50;17.83;;;8.60;56.50;;;;;;5093151;27;20972;-87
2022/04/01 05:16:07;;;;;;;14.97;10.63;;;8.70;57.00;;;;;;5092437;27;20484;-87
2022/04/01 05:18:42;;;;;;;15.50;10.50;;;8.70;56.70;;;;;;5095362;27;20457;-88
2022/04/01 05:21:18;;;;;;;22.00;13.53;;;8.70;56.60;;;;;;5110263;27;20460;-87
2022/04/01 05:23:52;;;;;;;28.50;16.17;;;8.60;56.90;;;;;;5119697;27;20483;-87
2022/04/01 05:26:25;;;;;;;15.27;9.27;;;8.80;56.60;;;;;;5113425;27;20476;-88
2022/04/01 05:29:13;;;;;;;12.43;8.60;;;8.80;56.10;;;;;;5112585;27;20923;-88
2022/04/01 05:31:46;;;;;;;14.20;8.30;;;8.80;55.90;;;;;;5113624;27;21073;-87
2022/04/01 05:34:26;;;;;;;20.97;13.03;;;8.70;55.90;;;;;;5116244;27;20538;-85
2022/04/01 05:36:55;;;;;;;24.47;13.20;;;8.50;55.60;;;;;;5121324;27;20761;-87
2022/04/01 05:39:23;;;;;;;18.70;13.33;;;8.40;56.60;;;;;;5116615;27;20439;-88
2022/04/01 05:41:57;;;;;;;14.43;9.20;;;8.20;56.40;;;;;;5120053;27;20601;-87
2022/04/01 05:44:27;;;;;;;14.63;8.90;;;8.30;56.90;;;;;;5117470;27;20530;-88
2022/04/01 05:46:55;;;;;;;11.90;8.33;;;8.40;56.50;;;;;;5119556;27;20468;-88
2022/04/01 05:49:24;;;;;;;9.73;7.60;;;8.20;56.70;;;;;;5116810;27;20527;-87
2022/04/01 05:51:54;;;;;;;12.63;8.33;;;8.10;56.70;;;;;;5121928;27;20563;-88
2022/04/01 05:54:25;;;;;;;11.20;8.00;;;8.10;56.80;;;;;;5127913;27;20529;-87
2022/04/01 05:56:52;;;;;;;12.27;8.90;;;8.00;57.10;;;;;;5131984;27;20465;-87
2022/04/01 05:59:22;;;;;;;14.10;8.07;;;7.90;57.40;;;;;;5117070;27;20515;-87
2022/04/01 06:02:04;;;;;;;12.80;8.23;;;7.80;57.20;;;;;;5115680;27;20502;-88
2022/04/01 06:04:44;;;;;;;13.77;8.50;;;7.90;57.30;;;;;;5132825;27;20804;-87
2022/04/01 06:07:27;;;;;;;12.30;8.50;;;8.00;57.50;;;;;;5084467;27;20449;-87
2022/04/01 06:10:01;;;;;;;10.20;7.67;;;8.00;57.50;;;;;;5098163;27;21027;-87
2022/04/01 06:13:03;;;;;;;12.67;7.93;;;8.00;57.00;;;;;;5100037;27;20469;-87
2022/04/01 06:16:16;;;;;;;16.50;8.53;;;7.60;57.50;;;;;;5131545;27;20619;-89
2022/04/01 06:19:11;;;;;;;10.33;6.77;;;7.90;58.30;;;;;;5095466;27;21230;-88
2022/04/01 06:21:43;;;;;;;12.83;7.70;;;8.00;58.10;;;;;;5122594;27;20468;-87
2022/04/01 06:24:12;;;;;;;15.03;8.47;;;8.10;57.50;;;;;;5113527;27;21615;-87
2022/04/01 06:26:52;;;;;;;11.67;8.10;;;8.10;57.80;;;;;;5129816;27;20438;-87
2022/04/01 06:29:34;;;;;;;13.77;8.27;;;8.20;57.80;;;;;;5120641;27;20455;-88
2022/04/01 06:32:05;;;;;;;14.00;7.80;;;8.20;57.30;;;;;;5113786;27;21093;-87
2022/04/01 06:34:51;;;;;;;12.03;8.07;;;8.10;57.20;;;;;;5116387;27;21058;-88
2022/04/01 06:37:55;;;;;;;12.03;8.50;;;8.20;57.10;;;;;;5124795;27;20449;-89
2022/04/01 06:40:25;;;;;;;11.47;8.40;;;8.20;57.30;;;;;;5113136;27;20544;-88
2022/04/01 06:42:54;;;;;;;11.93;8.20;;;8.00;56.70;;;;;;5102458;27;20584;-87
2022/04/01 06:45:39;;;;;;;13.40;8.63;;;8.10;57.30;;;;;;5105431;27;20449;-87
2022/04/01 06:48:25;;;;;;;16.97;12.70;;;8.10;57.10;;;;;;5113982;27;20528;-86
2022/04/01 06:51:14;;;;;;;14.60;9.93;;;8.20;57.10;;;;;;5102104;27;20465;-89
2022/04/01 06:54:00;;;;;;;14.83;9.43;;;8.30;57.10;;;;;;5130944;27;20437;-86
2022/04/01 06:56:45;;;;;;;14.83;8.67;;;8.30;56.90;;;;;;5133286;27;20496;-88
2022/04/01 06:59:13;;;;;;;14.23;10.00;;;8.30;57.20;;;;;;5096120;27;20453;-87
2022/04/01 07:01:40;;;;;;;13.27;8.10;;;8.40;57.60;;;;;;5115806;27;21184;-89
2022/04/01 07:04:07;;;;;;;13.87;8.97;;;8.30;56.80;;;;;;5116448;27;20587;-89
2022/04/01 07:06:35;;;;;;;12.50;8.37;;;8.20;57.10;;;;;;5098906;27;20568;-89
2022/04/01 07:09:02;;;;;;;11.20;7.73;;;8.30;57.30;;;;;;5112786;27;20446;-90
2022/04/01 07:11:30;;;;;;;10.00;7.93;;;8.30;56.60;;;;;;5118589;27;20556;-90
2022/04/01 07:13:57;;;;;;;11.57;8.00;;;8.20;56.60;;;;;;5085483;27;20953;-89
2022/04/01 07:16:24;;;;;;;12.67;8.70;;;8.20;56.70;;;;;;5099563;27;20542;-88
2022/04/01 07:18:51;;;;;;;11.17;7.67;;;8.10;57.00;;;;;;5132819;27;20451;-90
2022/04/01 07:21:19;;;;;;;9.10;7.50;;;8.00;56.80;;;;;;5134287;27;20461;-87
2022/04/01 07:23:47;;;;;;;10.60;7.20;;;8.10;57.20;;;;;;5123445;27;20513;-88
2022/04/01 07:26:14;;;;;;;14.57;9.10;;;8.30;57.20;;;;;;5113243;27;21205;-88
2022/04/01 07:28:41;;;;;;;9.33;6.60;;;8.20;56.70;;;;;;5120321;27;20446;-88
2022/04/01 07:33:49;;;;;;;11.70;7.60;;;8.20;57.40;;;;;;5109808;27;20465;-87
2022/04/01 07:36:16;;;;;;;12.93;8.80;;;8.20;57.40;;;;;;5130755;27;20466;-89
2022/04/01 07:38:44;;;;;;;13.20;8.63;;;8.20;57.20;;;;;;5097590;27;20458;-88
2022/04/01 07:41:12;;;;;;;13.73;8.50;;;8.10;57.50;;;;;;5110196;27;21327;-87
2022/04/01 07:43:39;;;;;;;10.30;7.70;;;8.30;57.70;;;;;;5110142;27;20826;-88
2022/04/01 07:46:06;;;;;;;11.83;8.30;;;8.10;56.40;;;;;;5113806;27;20441;-88
2022/04/01 07:48:34;;;;;;;14.30;9.00;;;8.10;56.90;;;;;;5081245;27;20446;-87
2022/04/01 07:51:01;;;;;;;13.50;8.20;;;8.10;56.90;;;;;;5094321;27;20820;-89
2022/04/01 07:53:28;;;;;;;15.00;9.47;;;8.20;56.60;;;;;;5099384;27;20466;-89
2022/04/01 07:55:55;;;;;;;15.20;9.17;;;8.20;57.80;;;;;;5102476;27;20471;-89
2022/04/01 07:58:23;;;;;;;14.40;10.63;;;8.10;57.20;;;;;;5103490;27;21458;-89
2022/04/01 08:00:50;;;;;;;17.30;9.37;;;8.10;57.90;;;;;;5085052;27;20465;-90
2022/04/01 08:03:17;;;;;;;14.17;9.30;;;8.30;57.50;;;;;;5112788;27;20468;-89
2022/04/01 08:05:44;;;;;;;14.97;10.03;;;8.60;57.20;;;;;;5103181;27;20442;-90
2022/04/01 08:08:11;;;;;;;12.90;9.43;;;8.60;57.00;;;;;;5133029;27;20890;-89
2022/04/01 08:10:38;;;;;;;15.10;9.70;;;8.60;56.70;;;;;;5101986;27;20464;-89
2022/04/01 08:13:06;;;;;;;13.17;9.27;;;8.60;56.40;;;;;;5120851;27;20457;-89
2022/04/01 08:15:34;;;;;;;15.40;9.83;;;8.50;56.50;;;;;;5083305;27;21026;-89
2022/04/01 08:18:01;;;;;;;15.27;10.13;;;8.30;56.90;;;;;;5103720;27;20521;-89
2022/04/01 08:20:28;;;;;;;10.27;8.10;;;8.10;57.10;;;;;;5098244;27;20473;-89
2022/04/01 08:22:55;;;;;;;15.30;9.33;;;8.10;57.20;;;;;;5128805;27;20536;-89
2022/04/01 08:25:23;;;;;;;14.40;9.13;;;8.40;57.50;;;;;;5129328;27;20537;-89
2022/04/01 08:27:50;;;;;;;12.87;8.70;;;8.40;56.80;;;;;;5079073;27;20836;-87
2022/04/01 08:30:17;;;;;;;19.87;12.57;;;8.30;57.00;;;;;;5112548;27;20460;-87
2022/04/01 08:32:45;;;;;;;38.83;21.23;;;8.20;56.60;;;;;;5114188;27;20457;-88
2022/04/01 08:35:13;;;;;;;16.23;9.77;;;8.10;56.90;;;;;;5130179;27;20463;-88
2022/04/01 08:37:40;;;;;;;13.77;9.93;;;7.90;57.20;;;;;;5106223;27;20469;-89
2022/04/01 08:40:08;;;;;;;16.00;9.63;;;7.80;57.90;;;;;;5123295;27;20473;-88
2022/04/01 08:42:36;;;;;;;17.43;10.53;;;8.00;58.40;;;;;;5089199;27;20969;-88
2022/04/01 08:45:06;;;;;;;18.97;10.50;;;8.00;57.10;;;;;;5119477;27;20441;-89
2022/04/01 08:47:35;;;;;;;15.20;11.00;;;7.90;57.50;;;;;;5117432;27;20449;-88
2022/04/01 08:50:04;;;;;;;17.33;10.47;;;8.00;57.50;;;;;;5132659;27;21050;-88
2022/04/01 08:52:31;;;;;;;17.03;10.80;;;7.90;57.40;;;;;;5092056;27;20885;-88
2022/04/01 08:55:05;;;;;;;22.40;13.43;;;7.80;57.20;;;;;;5118048;27;20442;-89
2022/04/01 08:57:36;;;;;;;19.40;10.23;;;7.90;57.30;;;;;;5088366;27;20550;-89
2022/04/01 09:00:19;;;;;;;15.40;10.97;;;7.80;56.80;;;;;;5106596;27;20519;-89
2022/04/01 09:02:58;;;;;;;19.70;13.07;;;7.80;57.40;;;;;;5117935;27;20453;-89
2022/04/01 09:05:27;;;;;;;20.40;12.50;;;7.70;57.60;;;;;;5107993;27;20442;-89
2022/04/01 09:08:00;;;;;;;25.43;14.53;;;7.80;57.40;;;;;;5104705;27;20465;-90
2022/04/01 09:10:27;;;;;;;25.17;14.60;;;7.80;57.20;;;;;;5101441;27;20524;-89
2022/04/01 09:12:55;;;;;;;55.00;26.57;;;7.90;57.30;;;;;;5117466;27;20567;-89
2022/04/01 09:15:23;;;;;;;30.50;16.90;;;7.80;57.30;;;;;;5106375;27;20452;-89
2022/04/01 09:17:51;;;;;;;78.63;27.37;;;7.90;57.70;;;;;;5090194;27;20460;-88
2022/04/01 09:20:19;;;;;;;38.93;19.53;;;7.80;56.50;;;;;;5122456;27;20494;-88
2022/04/01 09:22:47;;;;;;;32.23;19.23;;;7.80;56.50;;;;;;5139326;27;20449;-89
2022/04/01 09:25:16;;;;;;;29.27;14.80;;;7.70;56.90;;;;;;5118142;27;20457;-89
2022/04/01 09:27:46;;;;;;;35.13;18.97;;;7.50;56.80;;;;;;5092870;27;20454;-88
2022/04/01 09:30:15;;;;;;;28.57;16.97;;;7.60;57.60;;;;;;5089588;27;20482;-87
2022/04/01 09:32:44;;;;;;;26.33;14.03;;;7.70;56.60;;;;;;5120362;27;20449;-88
2022/04/01 09:35:12;;;;;;;27.97;13.70;;;7.60;56.30;;;;;;5116865;27;20461;-89
2022/04/01 09:37:41;;;;;;;20.63;13.77;;;7.40;57.80;;;;;;5137610;27;20980;-88
2022/04/01 09:40:12;;;;;;;20.03;13.43;;;7.30;57.40;;;;;;5139548;27;20449;-88
2022/04/01 09:42:39;;;;;;;21.37;13.37;;;7.30;57.50;;;;;;5127253;27;20932;-87
2022/04/01 09:45:07;;;;;;;26.87;14.80;;;7.20;58.10;;;;;;5137720;27;20433;-90
2022/04/01 09:47:37;;;;;;;19.83;13.60;;;7.20;57.60;;;;;;5120918;27;20445;-88
2022/04/01 09:50:13;;;;;;;26.87;15.23;;;7.10;57.50;;;;;;5126677;27;20441;-88
2022/04/01 09:52:41;;;;;;;26.03;17.07;;;7.00;58.20;;;;;;5109180;27;20436;-89
2022/04/01 09:55:10;;;;;;;26.50;15.47;;;7.20;58.70;;;;;;5116793;27;20940;-87
2022/04/01 09:57:37;;;;;;;26.50;16.20;;;7.30;57.70;;;;;;5127275;27;20487;-87
2022/04/01 10:00:09;;;;;;;25.47;14.50;;;7.40;57.90;;;;;;5125713;27;21288;-87
2022/04/01 10:02:40;;;;;;;25.30;15.10;;;7.50;57.20;;;;;;5119444;27;20552;-88
2022/04/01 10:05:08;;;;;;;24.10;14.83;;;7.60;57.60;;;;;;5105495;27;20563;-90
2022/04/01 10:07:35;;;;;;;24.43;14.63;;;7.70;57.00;;;;;;5117023;27;20450;-88
2022/04/01 10:10:06;;;;;;;19.67;11.90;;;7.80;56.90;;;;;;5117103;27;20503;-88
2022/04/01 10:12:42;;;;;;;20.63;13.33;;;7.80;56.40;;;;;;5123116;27;22102;-88
2022/04/01 10:15:10;;;;;;;20.63;12.27;;;7.90;56.00;;;;;;5116756;27;20448;-89
2022/04/01 10:17:40;;;;;;;22.30;12.37;;;7.90;56.00;;;;;;5118665;27;20485;-88
2022/04/01 10:20:08;;;;;;;20.53;12.43;;;7.80;55.60;;;;;;5098720;27;20445;-88
2022/04/01 10:22:36;;;;;;;18.40;12.30;;;7.70;55.90;;;;;;5100891;27;20447;-89
2022/04/01 10:25:08;;;;;;;27.80;15.33;;;7.60;56.10;;;;;;5101268;27;21133;-86
2022/04/01 10:27:40;;;;;;;21.23;13.47;;;7.60;56.90;;;;;;5119463;27;20441;-86
2022/04/01 10:30:09;;;;;;;19.93;14.37;;;7.70;56.30;;;;;;5114652;27;20496;-88
2022/04/01 10:32:41;;;;;;;22.23;11.97;;;7.80;56.40;;;;;;5115227;27;20445;-87
2022/04/01 10:35:10;;;;;;;21.87;14.83;;;7.80;55.70;;;;;;5116917;27;20457;-88
2022/04/01 10:37:38;;;;;;;22.23;13.40;;;7.70;55.70;;;;;;5135749;27;20465;-89
2022/04/01 10:40:16;;;;;;;17.63;10.10;;;7.50;55.90;;;;;;5092673;27;20453;-89
2022/04/01 10:42:45;;;;;;;20.50;11.77;;;7.30;56.00;;;;;;5104513;27;20460;-87
2022/04/01 10:45:24;;;;;;;17.93;11.37;;;7.30;56.20;;;;;;5102615;27;20463;-88
2022/04/01 10:53:37;;;;;;;17.03;10.20;;;7.30;56.70;;;;;;5117185;27;20442;-89
2022/04/01 10:56:36;;;;;;;18.40;11.40;;;7.20;56.10;;;;;;5126994;27;20464;-87
2022/04/01 10:59:14;;;;;;;20.50;10.90;;;7.30;56.70;;;;;;5112507;27;21379;-87
2022/04/01 11:01:59;;;;;;;20.97;13.00;;;7.40;56.70;;;;;;5109760;27;20477;-88
2022/04/01 11:04:30;;;;;;;17.73;10.00;;;7.40;57.40;;;;;;5114172;27;20492;-88
2022/04/01 11:07:00;;;;;;;16.33;10.73;;;7.30;56.50;;;;;;5117295;27;20445;-89
2022/04/01 11:09:42;;;;;;;17.60;10.80;;;7.30;56.90;;;;;;5113169;27;20538;-88
2022/04/01 11:12:29;;;;;;;18.47;10.27;;;7.30;55.90;;;;;;5133734;27;20465;-88
2022/04/01 11:15:17;;;;;;;18.23;10.97;;;7.30;56.00;;;;;;5114048;27;20507;-88
2022/04/01 11:18:01;;;;;;;16.83;10.73;;;7.30;56.20;;;;;;5094947;27;20473;-88
2022/04/01 11:20:31;;;;;;;17.87;11.20;;;7.20;56.50;;;;;;5130173;27;20505;-88
2022/04/01 11:23:03;;;;;;;15.07;11.30;;;7.30;56.60;;;;;;5113243;27;20462;-88
2022/04/01 11:25:53;;;;;;;17.77;10.50;;;7.30;56.60;;;;;;5114245;27;20453;-89
2022/04/01 11:28:21;;;;;;;16.53;10.30;;;7.10;56.80;;;;;;5111229;27;20429;-88
2022/04/01 11:31:06;;;;;;;17.87;11.13;;;6.90;56.80;;;;;;5113647;27;20572;-87
2022/04/01 11:33:33;;;;;;;22.30;11.97;;;6.90;57.00;;;;;;5100737;27;22130;-89
2022/04/01 11:36:00;;;;;;;19.07;11.30;;;7.20;57.30;;;;;;5111977;27;20448;-89
2022/04/01 11:38:29;;;;;;;18.33;12.27;;;7.30;57.00;;;;;;5098902;27;20462;-89
2022/04/01 11:41:00;;;;;;;20.83;10.57;;;7.40;57.00;;;;;;5135456;27;20478;-89
2022/04/01 11:43:28;;;;;;;16.33;9.93;;;7.20;56.40;;;;;;5100515;27;20449;-88
2022/04/01 11:45:58;;;;;;;18.27;10.87;;;7.30;56.40;;;;;;5098140;27;20438;-88
2022/04/01 11:48:30;;;;;;;20.33;11.60;;;7.30;56.00;;;;;;5138762;27;20520;-89
2022/04/01 11:50:59;;;;;;;15.53;10.67;;;7.40;56.20;;;;;;5089599;27;20505;-90
2022/04/01 11:53:29;;;;;;;18.27;11.17;;;7.40;55.90;;;;;;5086670;27;21015;-89
2022/04/01 11:55:57;;;;;;;19.27;10.47;;;7.30;55.90;;;;;;5099444;27;20437;-88
2022/04/01 11:58:25;;;;;;;15.50;10.03;;;7.30;55.80;;;;;;5110877;27;20469;-88
2022/04/01 12:00:52;;;;;;;21.50;14.50;;;7.30;55.60;;;;;;5094961;27;20561;-88
2022/04/01 12:03:19;;;;;;;19.00;11.23;;;7.40;56.00;;;;;;5111833;27;20473;-88
2022/04/01 12:08:41;;;;;;;21.47;12.30;;;7.40;55.80;;;;;;5101864;27;20470;-89
2022/04/01 12:08:46;;;;;;;18.30;11.00;;;7.40;56.30;;;;;;5096719;27;20550;-86
2022/04/01 12:11:13;;;;;;;16.43;10.33;;;7.60;56.30;;;;;;5131045;27;20473;-87
2022/04/01 12:13:48;;;;;;;20.10;11.27;;;7.50;55.50;;;;;;5111877;27;20453;-87
2022/04/01 12:16:16;;;;;;;16.40;10.73;;;7.10;56.20;;;;;;5133384;27;20449;-88
2022/04/01 12:18:46;;;;;;;17.17;11.17;;;7.10;56.80;;;;;;5115186;27;21147;-89
2022/04/01 12:21:19;;;;;;;20.60;12.83;;;7.10;56.80;;;;;;5082386;27;21497;-90
2022/04/01 12:23:48;;;;;;;19.57;11.10;;;7.00;56.40;;;;;;5087096;27;20472;-89
2022/04/01 12:26:16;;;;;;;12.33;8.50;;;7.10;57.00;;;;;;5113047;27;21223;-89
2022/04/01 12:28:45;;;;;;;17.43;10.63;;;6.80;56.00;;;;;;5096020;27;20450;-89
2022/04/01 12:31:19;;;;;;;15.00;9.23;;;6.80;57.10;;;;;;5110629;27;20492;-88
2022/04/01 12:33:48;;;;;;;16.50;9.97;;;6.80;56.40;;;;;;5099247;27;20440;-93
2022/04/01 12:36:28;;;;;;;17.00;9.43;;;6.90;56.80;;;;;;5114796;27;20817;-88
2022/04/01 12:39:02;;;;;;;20.47;13.37;;;6.60;56.40;;;;;;5112464;27;20460;-89
2022/04/01 12:41:29;;;;;;;17.60;9.73;;;6.60;57.90;;;;;;5131845;27;20955;-88
2022/04/01 12:43:59;;;;;;;16.77;10.20;;;6.50;57.40;;;;;;5126357;27;20441;-89
2022/04/01 12:46:30;;;;;;;14.73;9.70;;;6.50;57.90;;;;;;5100243;27;20449;-90
2022/04/01 12:48:59;;;;;;;17.03;10.57;;;6.70;58.60;;;;;;5115397;27;20450;-89
2022/04/01 12:51:31;;;;;;;16.37;10.33;;;6.70;56.90;;;;;;5124779;27;20465;-90
2022/04/01 12:54:01;;;;;;;15.87;10.93;;;6.80;57.80;;;;;;5114375;27;20522;-88
2022/04/01 12:56:31;;;;;;;16.53;10.13;;;6.90;57.20;;;;;;5099684;27;20442;-89
2022/04/01 12:59:00;;;;;;;17.53;10.20;;;6.60;57.40;;;;;;5112186;27;20559;-89
2022/04/01 13:01:29;;;;;;;20.70;10.33;;;6.50;58.10;;;;;;5126175;27;20471;-91
2022/04/01 13:03:57;;;;;;;15.70;9.27;;;6.60;57.70;;;;;;5143746;27;20462;-89
2022/04/01 13:06:25;;;;;;;15.13;8.43;;;6.70;56.30;;;;;;5131450;27;20463;-91
2022/04/01 13:09:05;;;;;;;17.57;10.27;;;6.50;56.70;;;;;;5107585;27;20481;-90
2022/04/01 13:11:37;;;;;;;17.47;11.20;;;6.60;57.00;;;;;;5117140;27;20490;-89
2022/04/01 13:14:05;;;;;;;22.97;13.73;;;6.70;57.10;;;;;;5126402;27;20446;-90
2022/04/01 13:16:37;;;;;;;20.50;12.40;;;6.70;57.10;;;;;;5099548;27;20441;-91
2022/04/01 13:19:23;;;;;;;19.37;13.10;;;6.70;57.40;;;;;;5116995;27;20465;-91